Time;durP1;ratioP1;P1;durP2;ratioP2;P2;SDS_P1;SDS_P2;PMS_P1;PMS_P2;Temp;Humidity;BMP_temperature;BMP_pressure;BME280_temperature;BME280_humidity;BME280_pressure;Samples;Min_cycle;Max_cycle;Signal;HPM_P1;HPM_P2
2022/04/21 00:00:37;;;;;;;12.07;6.35;;;;;;;9.59;89.52;101049.97;5053195;28;20052;-84
2022/04/21 00:03:04;;;;;;;14.60;6.75;;;;;;;9.56;89.79;101040.16;5055133;28;20033;-83
2022/04/21 00:05:30;;;;;;;16.38;6.63;;;;;;;9.48;90.26;101045.31;5034640;28;20045;-84
2022/04/21 00:07:56;;;;;;;14.85;6.57;;;;;;;9.49;90.42;101036.97;5034881;28;20086;-84
2022/04/21 00:10:23;;;;;;;12.90;5.75;;;;;;;9.43;90.60;101042.00;5048572;28;20052;-84
2022/04/21 00:12:51;;;;;;;15.25;5.95;;;;;;;9.49;89.26;101036.97;5054275;28;20025;-84
2022/04/21 00:15:17;;;;;;;17.30;6.50;;;;;;;9.50;89.46;101038.72;5070999;28;20033;-84
2022/04/21 00:17:43;;;;;;;19.90;6.43;;;;;;;9.36;90.33;101025.16;5068444;28;20059;-83
2022/04/21 00:20:09;;;;;;;10.52;6.00;;;;;;;9.29;90.96;101030.19;5050900;28;20383;-84
2022/04/21 00:25:19;;;;;;;13.68;6.22;;;;;;;9.32;90.24;101020.91;5054081;28;20041;-84
2022/04/21 00:27:46;;;;;;;14.40;6.55;;;;;;;9.32;90.21;101021.78;5038574;28;20377;-84
2022/04/21 00:30:14;;;;;;;11.98;6.30;;;;;;;9.32;91.03;101027.25;5054992;28;20029;-83
2022/04/21 00:32:41;;;;;;;12.85;6.13;;;;;;;9.26;91.24;101022.22;5054808;28;20119;-85
2022/04/21 00:35:11;;;;;;;12.23;6.53;;;;;;;9.24;91.59;101024.19;5022784;28;20063;-84
2022/04/21 00:37:54;;;;;;;13.30;6.55;;;;;;;9.28;90.58;101017.53;5054658;28;20111;-85
2022/04/21 00:40:23;;;;;;;9.30;5.95;;;;;;;9.25;91.13;101023.22;5062438;28;20377;-84
2022/04/21 00:42:49;;;;;;;13.65;6.10;;;;;;;9.26;90.58;101011.28;5077726;28;20040;-84
2022/04/21 00:45:15;;;;;;;15.00;6.10;;;;;;;9.36;90.24;101009.66;5029372;28;20064;-84
2022/04/21 00:47:44;;;;;;;11.65;6.25;;;;;;;9.30;90.72;101014.69;5045224;28;20049;-84
2022/04/21 00:50:18;;;;;;;13.20;6.03;;;;;;;9.25;91.09;101003.19;5040398;28;20036;-84
2022/04/21 00:52:45;;;;;;;12.68;6.40;;;;;;;9.18;91.84;101013.69;5061694;28;20040;-84
2022/04/21 00:55:11;;;;;;;11.93;6.82;;;;;;;9.20;91.33;101009.00;5058842;28;20649;-83
2022/04/21 00:57:38;;;;;;;12.10;7.20;;;;;;;9.14;91.37;100995.78;5058396;28;20037;-84
2022/04/21 01:00:06;;;;;;;12.38;6.32;;;;;;;9.12;91.66;101004.09;5043010;28;20052;-84
2022/04/21 01:05:31;;;;;;;12.65;6.65;;;;;;;8.96;92.42;101007.00;5039727;28;20045;-83
2022/04/21 01:08:01;;;;;;;10.73;6.75;;;;;;;8.97;92.65;101011.50;5041196;28;20037;-84
2022/04/21 01:10:28;;;;;;;12.52;6.32;;;;;;;8.94;91.64;101000.78;5037909;28;20052;-83
2022/04/21 01:12:54;;;;;;;14.15;7.40;;;;;;;9.02;91.77;101008.44;5055523;28;20036;-83
2022/04/21 01:15:20;;;;;;;16.25;6.55;;;;;;;8.94;91.68;101008.13;5058973;28;20082;-83
2022/04/21 01:17:46;;;;;;;11.75;6.90;;;;;;;8.72;93.79;100995.94;5057801;28;20041;-84
2022/04/21 01:20:16;;;;;;;18.73;6.93;;;;;;;8.78;93.69;101009.16;5040321;28;20079;-83
2022/04/21 01:22:42;;;;;;;15.15;6.78;;;;;;;8.59;94.46;100995.94;5039841;28;20047;-82
2022/04/21 01:25:08;;;;;;;17.45;7.25;;;;;;;8.65;95.10;101011.00;5073440;28;20119;-82
2022/04/21 01:27:35;;;;;;;13.52;7.28;;;;;;;8.53;96.04;101007.25;5072505;28;20035;-83
2022/04/21 01:30:02;;;;;;;13.73;7.03;;;;;;;8.47;97.39;101004.94;5057759;28;20056;-84
2022/04/21 01:32:28;;;;;;;14.10;6.80;;;;;;;8.25;98.54;100976.34;5075295;28;20029;-84
2022/04/21 01:34:54;;;;;;;13.65;7.60;;;;;;;8.42;97.58;100999.75;5039358;28;20033;-84
2022/04/21 01:42:48;;;;;;;12.65;7.22;;;;;;;8.31;98.78;101002.31;5043521;28;20029;-84
2022/04/21 01:45:14;;;;;;;11.65;7.10;;;;;;;8.49;97.51;101015.75;5021123;28;20025;-84
2022/04/21 01:47:39;;;;;;;19.45;7.28;;;;;;;8.39;96.73;101013.59;5040834;28;20025;-82
2022/04/21 01:50:07;;;;;;;12.60;6.40;;;;;;;8.45;95.82;101007.78;5054523;28;20052;-83
2022/04/21 01:52:35;;;;;;;13.57;6.40;;;;;;;8.42;95.76;101002.47;5038830;28;20033;-83
2022/04/21 01:55:01;;;;;;;13.25;7.40;;;;;;;8.41;95.68;101005.31;5041055;28;20029;-83
2022/04/21 01:57:27;;;;;;;13.15;6.93;;;;;;;8.33;96.64;100989.50;5058152;28;20033;-83
2022/04/21 01:59:52;;;;;;;10.57;6.85;;;;;;;8.35;96.50;100986.66;5024431;28;20059;-83
2022/04/21 02:02:18;;;;;;;14.65;7.10;;;;;;;8.34;98.03;100993.06;5033919;28;20460;-83
2022/04/21 02:04:44;;;;;;;19.75;8.90;;;;;;;8.34;97.18;100990.34;5027240;28;20033;-83
2022/04/21 02:07:09;;;;;;;14.50;7.47;;;;;;;8.36;97.53;100996.56;5040305;28;20036;-82
2022/04/21 02:09:34;;;;;;;19.48;7.00;;;;;;;8.37;98.11;101003.78;5057358;28;20040;-83
2022/04/21 02:12:00;;;;;;;14.88;7.28;;;;;;;8.21;99.85;100993.88;5025833;28;20403;-82
2022/04/21 02:14:25;;;;;;;15.15;7.65;;;;;;;8.17;100.00;100995.09;5038790;28;20451;-83
2022/04/21 02:16:51;;;;;;;16.65;7.50;;;;;;;8.03;100.00;100995.13;5038460;28;20543;-84
2022/04/21 02:19:16;;;;;;;19.60;8.15;;;;;;;7.98;100.00;100989.97;5055978;28;20172;-84
2022/04/21 02:21:42;;;;;;;16.52;7.82;;;;;;;7.90;100.00;100998.69;5038298;28;20040;-83
2022/04/21 02:24:07;;;;;;;19.35;8.68;;;;;;;7.88;100.00;101003.34;5024396;28;20037;-84
2022/04/21 02:26:33;;;;;;;17.50;7.60;;;;;;;7.80;100.00;101002.09;5017939;28;20097;-84
2022/04/21 02:28:58;;;;;;;16.40;8.40;;;;;;;7.95;100.00;101003.81;5024453;28;20102;-84
2022/04/21 02:31:24;;;;;;;16.85;8.70;;;;;;;7.93;100.00;100997.59;5018285;28;20120;-83
2022/04/21 02:33:49;;;;;;;19.17;8.68;;;;;;;7.86;100.00;100998.97;5053654;28;20041;-82
2022/04/21 02:36:15;;;;;;;14.85;8.13;;;;;;;7.93;100.00;100992.13;5055299;28;20112;-82
2022/04/21 02:38:40;;;;;;;15.82;8.18;;;;;;;7.90;100.00;100995.94;5036398;28;20052;-83
2022/04/21 02:41:06;;;;;;;19.17;9.52;;;;;;;7.93;99.43;100991.25;5069374;28;20040;-83
2022/04/21 02:43:32;;;;;;;21.77;8.90;;;;;;;7.96;100.00;100991.94;5020621;28;20480;-82
2022/04/21 02:45:57;;;;;;;23.70;9.00;;;;;;;7.89;99.99;100990.59;5055405;28;20033;-83
2022/04/21 02:48:23;;;;;;;25.20;8.98;;;;;;;7.93;99.65;100996.72;5053980;28;20052;-82
2022/04/21 02:50:49;;;;;;;17.33;9.18;;;;;;;7.84;100.00;100992.75;5033129;28;20578;-83
2022/04/21 02:53:16;;;;;;;21.98;9.02;;;;;;;7.75;100.00;100991.50;5025391;28;20036;-83
2022/04/21 02:58:26;;;;;;;18.55;9.20;;;;;;;7.52;100.00;100980.22;5056623;28;20070;-83
2022/04/21 03:00:52;;;;;;;18.70;9.15;;;;;;;7.54;100.00;100989.19;5037464;28;20040;-83
2022/04/21 03:03:17;;;;;;;20.92;9.70;;;;;;;7.48;100.00;100994.16;5022328;28;20199;-83
2022/04/21 03:05:43;;;;;;;21.38;9.85;;;;;;;7.46;100.00;100986.09;5014056;28;20044;-82
2022/04/21 03:08:08;;;;;;;30.17;11.27;;;;;;;7.44;100.00;100978.97;5019684;28;20028;-83
2022/04/21 03:10:34;;;;;;;18.92;9.82;;;;;;;7.49;100.00;100988.63;5035411;28;20089;-83
2022/04/21 03:12:59;;;;;;;29.00;9.90;;;;;;;7.44;100.00;100998.91;5024106;28;20044;-82
2022/04/21 03:15:25;;;;;;;22.92;10.43;;;;;;;7.35;100.00;100994.94;5018542;28;22091;-83
2022/04/21 03:17:51;;;;;;;25.00;10.07;;;;;;;7.40;100.00;100991.06;5019972;28;20425;-83
2022/04/21 03:25:58;;;;;;;19.25;9.95;;;;;;;7.27;100.00;100985.50;5018834;28;20041;-83
2022/04/21 03:28:24;;;;;;;17.42;9.70;;;;;;;7.31;100.00;100993.41;5055870;28;20037;-84
2022/04/21 03:30:51;;;;;;;19.83;9.35;;;;;;;7.28;100.00;100987.25;5035574;28;20033;-84
2022/04/21 03:33:16;;;;;;;22.27;9.70;;;;;;;7.21;100.00;100991.34;5024649;28;21591;-83
2022/04/21 03:35:41;;;;;;;26.50;10.63;;;;;;;7.10;100.00;100992.88;5023175;28;20114;-83
2022/04/21 03:38:07;;;;;;;21.60;9.30;;;;;;;7.12;100.00;100992.78;5038875;28;20415;-83
2022/04/21 03:40:33;;;;;;;20.75;9.77;;;;;;;7.09;100.00;101003.88;5027599;28;21587;-83
2022/04/21 03:42:58;;;;;;;24.38;9.95;;;;;;;6.89;100.00;100988.78;5041765;28;20041;-82
2022/04/21 03:45:24;;;;;;;19.55;10.48;;;;;;;7.05;100.00;101008.63;5022783;28;20029;-84
2022/04/21 03:47:49;;;;;;;19.90;9.43;;;;;;;7.11;100.00;101007.38;5033161;28;20119;-83
2022/04/21 03:50:15;;;;;;;27.73;10.30;;;;;;;7.20;100.00;101008.63;5037854;28;20087;-83
2022/04/21 03:52:40;;;;;;;21.15;10.45;;;;;;;7.08;100.00;101000.25;5036917;28;20037;-83
2022/04/21 03:55:06;;;;;;;21.63;9.68;;;;;;;7.10;100.00;101006.50;5004704;28;20029;-84
2022/04/21 03:57:32;;;;;;;22.40;9.45;;;;;;;7.05;100.00;101014.09;5037432;28;20057;-83
2022/04/21 03:59:58;;;;;;;22.63;11.55;;;;;;;7.06;100.00;101013.09;5050221;28;20114;-82
2022/04/21 04:02:23;;;;;;;20.05;9.60;;;;;;;7.02;100.00;101010.66;5054562;28;20537;-84
2022/04/21 04:04:48;;;;;;;19.00;10.05;;;;;;;7.03;100.00;101012.41;5020228;28;20128;-83
2022/04/21 04:12:42;;;;;;;24.90;11.45;;;;;;;6.96;100.00;101017.38;5025888;28;20098;-83
2022/04/21 04:15:12;;;;;;;21.33;9.75;;;;;;;6.85;100.00;101003.53;5024443;28;20531;-81
2022/04/21 04:17:37;;;;;;;24.23;9.95;;;;;;;6.89;100.00;101010.56;5036079;28;20041;-81
2022/04/21 04:20:05;;;;;;;19.48;10.27;;;;;;;6.91;100.00;101020.34;5070666;28;20154;-81
2022/04/21 04:22:35;;;;;;;20.27;10.98;;;;;;;6.79;100.00;101005.66;5019849;28;20044;-81
2022/04/21 04:25:00;;;;;;;23.73;10.68;;;;;;;6.86;100.00;101000.72;5051009;28;20094;-81
2022/04/21 04:27:25;;;;;;;19.08;9.50;;;;;;;6.86;100.00;101016.19;5019225;28;20029;-81
2022/04/21 04:29:51;;;;;;;23.88;10.77;;;;;;;6.78;100.00;101005.75;5051562;28;20044;-81
2022/04/21 04:32:16;;;;;;;28.67;12.07;;;;;;;6.85;100.00;101015.28;5034051;28;20036;-81
2022/04/21 04:34:43;;;;;;;31.33;12.73;;;;;;;6.74;100.00;100991.47;5037291;28;20039;-83
2022/04/21 04:37:09;;;;;;;25.85;10.95;;;;;;;6.86;100.00;101017.06;5051951;28;20029;-81
2022/04/21 04:39:34;;;;;;;24.25;11.55;;;;;;;6.77;100.00;101012.16;5032210;28;20655;-82
2022/04/21 04:42:20;;;;;;;24.30;10.75;;;;;;;6.80;100.00;101017.41;5036630;28;20043;-83
2022/04/21 04:44:48;;;;;;;32.28;11.27;;;;;;;6.87;100.00;101021.53;5056121;28;20119;-81
2022/04/21 04:47:14;;;;;;;23.70;11.82;;;;;;;6.90;100.00;101020.44;5018388;28;20026;-82
2022/04/21 04:49:40;;;;;;;27.73;10.75;;;;;;;6.88;100.00;101026.00;5070169;28;20029;-82
2022/04/21 04:52:06;;;;;;;27.60;11.65;;;;;;;6.94;100.00;101016.59;5034841;28;20124;-81
2022/04/21 04:54:32;;;;;;;34.20;11.82;;;;;;;6.80;100.00;101018.31;5052327;28;20060;-81
2022/04/21 04:56:58;;;;;;;28.13;11.85;;;;;;;6.87;100.00;101018.81;5051974;28;20029;-81
2022/04/21 04:59:23;;;;;;;23.35;11.07;;;;;;;6.94;100.00;101017.47;5053142;28;20171;-81
2022/04/21 05:01:49;;;;;;;23.10;10.85;;;;;;;6.78;100.00;101017.50;5052159;28;20396;-83
2022/04/21 05:04:20;;;;;;;27.88;12.55;;;;;;;6.83;100.00;101011.78;5036632;28;20108;-83
2022/04/21 05:06:50;;;;;;;26.88;11.95;;;;;;;6.83;100.00;101019.09;5051438;28;20060;-81
2022/04/21 05:09:22;;;;;;;26.77;11.48;;;;;;;6.88;100.00;101016.97;5035850;28;20029;-82
2022/04/21 05:11:53;;;;;;;25.52;11.45;;;;;;;6.83;100.00;101013.66;5031853;28;20067;-84
2022/04/21 05:14:19;;;;;;;31.80;12.25;;;;;;;6.69;100.00;101007.19;5052031;28;20028;-82
2022/04/21 05:16:45;;;;;;;32.05;12.27;;;;;;;6.73;100.00;101007.88;5032797;28;20040;-84
2022/04/21 05:19:16;;;;;;;27.40;12.38;;;;;;;6.69;100.00;101004.47;5022271;28;20430;-82
2022/04/21 05:21:43;;;;;;;24.58;11.77;;;;;;;6.85;100.00;101006.25;5036624;28;20036;-81
2022/04/21 05:24:13;;;;;;;29.05;13.88;;;;;;;6.92;100.00;101004.91;5035423;28;20028;-83
2022/04/21 05:26:40;;;;;;;30.73;13.55;;;;;;;6.95;100.00;101008.34;5035866;28;20035;-82
2022/04/21 05:32:02;;;;;;;36.25;12.35;;;;;;;7.09;100.00;101009.31;5036146;28;20048;-82
2022/04/21 05:34:29;;;;;;;34.38;12.77;;;;;;;7.11;100.00;101007.38;5071990;28;20032;-82
2022/04/21 05:36:56;;;;;;;32.13;13.32;;;;;;;7.15;100.00;101000.78;5056653;28;20040;-83
2022/04/21 05:39:22;;;;;;;29.90;13.68;;;;;;;7.35;100.00;101011.28;5060195;28;20048;-82
2022/04/21 05:41:48;;;;;;;33.58;13.95;;;;;;;7.38;100.00;100996.59;5038606;28;20041;-81
2022/04/21 05:44:14;;;;;;;28.13;12.73;;;;;;;7.61;100.00;100996.94;5052572;28;20033;-79
2022/04/21 05:46:40;;;;;;;32.97;12.48;;;;;;;7.78;100.00;101007.66;5033401;28;20060;-77
2022/04/21 05:49:06;;;;;;;35.83;12.82;;;;;;;7.89;100.00;101012.41;5049550;28;20072;-79
2022/04/21 05:51:32;;;;;;;27.25;12.35;;;;;;;8.20;100.00;101003.06;5047042;28;20064;-79
2022/04/21 05:53:58;;;;;;;33.55;14.23;;;;;;;8.42;100.00;100998.88;5036634;28;20622;-78
2022/04/21 05:56:24;;;;;;;34.03;12.73;;;;;;;8.61;100.00;101010.34;5032706;28;20517;-79
2022/04/21 05:58:54;;;;;;;30.67;12.48;;;;;;;8.95;98.23;101009.84;5045700;28;20131;-78
2022/04/21 06:01:19;;;;;;;37.78;15.13;;;;;;;9.12;97.94;101006.81;5037069;28;20071;-78
2022/04/21 06:03:45;;;;;;;33.38;13.68;;;;;;;9.29;94.88;100988.34;5032023;28;20064;-79
2022/04/21 06:06:11;;;;;;;28.75;13.15;;;;;;;9.69;92.18;101005.47;5054391;28;20112;-79
2022/04/21 06:08:37;;;;;;;36.97;15.25;;;;;;;9.94;92.19;100995.44;5049744;28;20111;-79
2022/04/21 06:11:04;;;;;;;42.30;14.68;;;;;;;9.87;93.24;101000.50;5051454;28;20051;-79
2022/04/21 06:13:30;;;;;;;38.63;14.68;;;;;;;10.05;91.71;100998.28;5061452;28;20489;-80
2022/04/21 06:15:57;;;;;;;40.05;15.65;;;;;;;10.44;89.33;100996.25;5055550;28;20054;-80
2022/04/21 06:18:24;;;;;;;33.08;14.32;;;;;;;10.53;88.94;100997.44;5054622;28;20064;-78
2022/04/21 06:20:50;;;;;;;33.67;14.25;;;;;;;10.59;87.59;100998.81;5052687;28;20510;-79
2022/04/21 06:23:16;;;;;;;39.45;15.70;;;;;;;10.93;85.21;100988.84;5053088;28;20040;-80
2022/04/21 06:25:42;;;;;;;39.85;13.18;;;;;;;11.19;83.65;100995.00;5054047;28;20047;-80
2022/04/21 06:28:09;;;;;;;39.65;13.88;;;;;;;11.61;81.03;100982.56;5037542;28;20033;-79
2022/04/21 06:30:35;;;;;;;43.53;12.35;;;;;;;11.72;81.50;100986.19;5049773;28;20037;-79
2022/04/21 06:33:00;;;;;;;26.08;11.13;;;;;;;12.07;78.06;100981.56;5018320;28;20043;-79
2022/04/21 06:35:26;;;;;;;53.15;12.07;;;;;;;12.47;73.48;100986.41;5015525;28;20041;-78
2022/04/21 06:37:53;;;;;;;21.35;10.25;;;;;;;12.45;73.57;100993.91;5051182;28;20586;-78
2022/04/21 06:40:18;;;;;;;23.67;10.55;;;;;;;12.23;75.92;100983.88;5070669;28;20037;-78
2022/04/21 06:42:44;;;;;;;25.02;9.77;;;;;;;12.29;75.31;100984.22;5037959;28;20110;-78
2022/04/21 06:48:08;;;;;;;17.40;9.25;;;;;;;12.34;75.13;100980.22;5053434;28;20088;-78
2022/04/21 06:50:35;;;;;;;23.08;8.43;;;;;;;13.12;69.34;100970.72;5052451;28;20444;-78
2022/04/21 06:53:06;;;;;;;22.88;8.73;;;;;;;12.79;71.82;100980.03;5052877;28;20029;-78
2022/04/21 06:55:32;;;;;;;20.35;7.65;;;;;;;13.28;71.34;100969.34;5050020;28;20041;-78
2022/04/21 06:57:58;;;;;;;17.42;8.40;;;;;;;13.32;69.59;100971.72;5053366;28;20068;-78
2022/04/21 07:00:26;;;;;;;18.98;7.72;;;;;;;13.74;68.31;100977.13;5053592;28;20064;-78
2022/04/21 07:02:53;;;;;;;12.35;7.70;;;;;;;13.66;68.32;100974.22;5053903;28;20090;-78
2022/04/21 07:05:19;;;;;;;23.48;7.45;;;;;;;13.60;68.40;100986.63;5045481;28;20451;-79
2022/04/21 07:07:44;;;;;;;17.98;7.57;;;;;;;13.23;68.57;100980.75;5035330;28;20242;-78
2022/04/21 07:10:11;;;;;;;19.77;7.68;;;;;;;13.85;67.65;100978.03;5051946;28;20045;-78
2022/04/21 07:12:37;;;;;;;14.95;7.28;;;;;;;13.93;67.27;100980.97;5059964;28;20181;-78
2022/04/21 07:15:08;;;;;;;17.35;7.35;;;;;;;13.94;67.19;100986.31;5043264;28;20056;-79
2022/04/21 07:17:35;;;;;;;14.40;7.50;;;;;;;13.84;68.40;100992.78;5051896;28;20040;-78
2022/04/21 07:20:02;;;;;;;18.55;7.30;;;;;;;14.48;66.80;100986.88;5051689;28;20451;-79
2022/04/21 07:22:29;;;;;;;14.90;6.57;;;;;;;14.81;65.55;100990.22;5054183;28;20029;-78
2022/04/21 07:24:56;;;;;;;12.38;7.05;;;;;;;14.81;64.29;100997.66;5052228;28;20025;-79
2022/04/21 07:27:22;;;;;;;17.27;7.45;;;;;;;14.68;65.60;100997.94;5035693;28;20052;-78
2022/04/21 07:29:48;;;;;;;15.02;7.63;;;;;;;15.26;63.52;100991.47;5048546;28;20221;-77
2022/04/21 07:32:14;;;;;;;14.25;6.10;;;;;;;15.69;63.34;101000.19;5051387;28;20568;-77
2022/04/21 07:34:39;;;;;;;11.18;5.30;;;;;;;15.43;64.06;100996.22;5051493;28;20738;-79
2022/04/21 07:37:07;;;;;;;14.35;7.15;;;;;;;15.39;61.61;100991.16;5052008;28;20127;-79
2022/04/21 07:39:32;;;;;;;8.55;6.07;;;;;;;15.25;63.69;100981.47;5064873;28;20030;-79
2022/04/21 07:41:59;;;;;;;12.70;5.97;;;;;;;15.79;63.36;101004.69;5048174;28;20391;-79
2022/04/21 07:44:26;;;;;;;19.52;5.85;;;;;;;16.28;61.27;100996.16;5034885;28;20660;-77
2022/04/21 07:46:52;;;;;;;15.45;5.93;;;;;;;15.81;61.22;101001.78;5049985;28;20041;-79
2022/04/21 07:54:45;;;;;;;11.23;5.07;;;;;;;16.26;57.69;101000.09;5044800;28;20040;-78
2022/04/21 07:57:11;;;;;;;10.98;5.10;;;;;;;16.34;57.22;101002.94;5034319;28;20493;-79
2022/04/21 07:59:36;;;;;;;33.05;6.22;;;;;;;16.73;58.00;101002.66;5051103;28;20049;-80
2022/04/21 08:02:03;;;;;;;16.13;5.65;;;;;;;16.81;57.79;101004.63;5033880;28;20395;-79
2022/04/21 08:04:30;;;;;;;10.20;5.63;;;;;;;16.30;56.77;100996.00;5067467;28;20028;-78
2022/04/21 08:06:57;;;;;;;13.27;5.28;;;;;;;16.13;59.27;100998.56;5050504;28;20102;-79
2022/04/21 08:09:23;;;;;;;12.57;4.90;;;;;;;16.35;58.65;100997.25;5054378;28;20400;-79
2022/04/21 08:11:48;;;;;;;10.32;4.82;;;;;;;16.07;60.37;100998.28;5048353;28;20040;-78
2022/04/21 08:14:16;;;;;;;10.95;4.72;;;;;;;16.57;58.08;100996.97;5050427;28;20075;-77
2022/04/21 08:16:43;;;;;;;7.78;4.80;;;;;;;16.66;58.61;100990.47;5050007;28;20021;-77
2022/04/21 08:19:10;;;;;;;12.85;5.38;;;;;;;17.22;57.49;100997.56;5049989;28;20071;-78
2022/04/21 08:21:36;;;;;;;10.25;5.35;;;;;;;16.89;57.96;100997.31;5052124;28;20112;-77
2022/04/21 08:32:33;;;;;;;13.48;4.90;;;;;;;16.20;57.69;100992.41;5052422;28;20074;-77
2022/04/21 08:32:36;;;;;;;7.78;4.90;;;;;;;17.62;56.35;100982.25;5037840;28;20048;-78
2022/04/21 08:35:05;;;;;;;12.63;4.05;;;;;;;17.31;55.72;100992.09;5053853;28;20040;-77
2022/04/21 08:37:34;;;;;;;8.13;4.40;;;;;;;17.41;55.53;100990.97;5050213;28;20052;-77
2022/04/21 08:40:03;;;;;;;9.52;5.13;;;;;;;17.16;56.92;100994.59;5030560;28;20554;-79
2022/04/21 08:42:37;;;;;;;7.32;4.65;;;;;;;17.59;54.56;100984.47;5054496;28;20025;-79
2022/04/21 08:45:03;;;;;;;8.55;4.97;;;;;;;17.84;54.66;100993.81;5047472;28;20041;-79
2022/04/21 08:47:29;;;;;;;8.10;4.95;;;;;;;17.74;54.14;100982.84;5035756;28;20041;-79
2022/04/21 08:50:12;;;;;;;18.20;5.60;;;;;;;19.09;50.87;100986.50;5055012;28;20043;-79
2022/04/21 08:52:39;;;;;;;6.35;4.68;;;;;;;19.14;51.80;100980.44;5053190;28;20047;-79
2022/04/21 08:55:05;;;;;;;6.35;3.85;;;;;;;18.15;52.46;100976.63;5052762;28;20059;-79
2022/04/21 08:57:31;;;;;;;11.07;5.72;;;;;;;17.96;54.12;100977.78;5051706;28;20049;-78
2022/04/21 08:59:58;;;;;;;18.85;6.30;;;;;;;18.46;52.68;100967.69;5054032;28;20036;-79
2022/04/21 09:02:40;;;;;;;8.93;4.35;;;;;;;17.95;50.87;100981.56;5057624;28;20033;-78
2022/04/21 09:05:06;;;;;;;8.88;4.20;;;;;;;17.77;51.74;100968.69;5057407;28;20033;-78
2022/04/21 09:07:32;;;;;;;10.23;4.43;;;;;;;18.61;49.50;100973.44;5055534;28;20037;-78
2022/04/21 09:10:07;;;;;;;9.75;3.90;;;;;;;18.42;46.68;100969.09;5056464;28;20043;-78
2022/04/21 09:12:34;;;;;;;18.83;4.28;;;;;;;18.70;47.35;100966.88;5038915;28;20480;-78
2022/04/21 09:15:14;;;;;;;13.25;4.53;;;;;;;18.06;48.96;100966.56;5071026;28;20033;-78
2022/04/21 09:17:41;;;;;;;6.60;3.88;;;;;;;18.24;47.65;100975.63;5055052;28;20063;-78
2022/04/21 09:20:08;;;;;;;10.05;4.40;;;;;;;18.41;47.76;100975.66;5056293;28;20029;-78
2022/04/21 09:22:34;;;;;;;14.07;3.20;;;;;;;18.15;46.54;100971.06;5054736;28;20491;-78
2022/04/21 09:25:00;;;;;;;13.07;6.85;;;;;;;18.52;44.91;100970.66;5054606;28;20037;-78
2022/04/21 09:27:42;;;;;;;9.63;3.65;;;;;;;18.81;45.67;100969.31;5037522;28;20021;-78
2022/04/21 09:30:10;;;;;;;17.23;4.53;;;;;;;18.82;47.24;100968.25;5054920;28;20040;-78
2022/04/21 09:32:40;;;;;;;10.45;4.00;;;;;;;19.22;44.11;100958.22;5069164;28;20481;-78
2022/04/21 09:35:09;;;;;;;9.70;3.60;;;;;;;19.00;43.66;100958.91;5055481;28;20028;-78
2022/04/21 09:37:55;;;;;;;5.18;3.45;;;;;;;18.92;43.32;100957.91;5051058;28;20021;-78
2022/04/21 09:40:25;;;;;;;3.03;2.67;;;;;;;18.27;40.55;100946.72;5065382;28;20032;-78
2022/04/21 09:43:03;;;;;;;17.10;3.25;;;;;;;19.17;41.30;100949.53;5054364;28;20029;-79
2022/04/21 09:48:24;;;;;;;13.48;2.67;;;;;;;18.55;40.85;100950.91;5059945;28;20029;-79
2022/04/21 09:50:53;;;;;;;6.40;2.72;;;;;;;18.46;39.95;100945.50;5057459;28;20103;-79
2022/04/21 09:53:23;;;;;;;3.42;1.95;;;;;;;18.27;37.71;100942.03;5065502;28;20025;-79
2022/04/21 09:55:51;;;;;;;12.75;2.38;;;;;;;18.72;37.14;100946.22;5054701;28;20037;-79
2022/04/21 09:58:17;;;;;;;6.35;2.33;;;;;;;17.76;38.25;100939.22;5063938;28;20036;-78
2022/04/21 10:00:44;;;;;;;9.85;2.25;;;;;;;18.33;38.29;100933.03;5046200;28;20033;-79
2022/04/21 10:03:10;;;;;;;5.78;2.00;;;;;;;18.84;36.79;100927.38;5081145;28;20056;-80
2022/04/21 10:05:39;;;;;;;10.35;2.33;;;;;;;19.11;34.81;100933.59;5063025;28;20025;-80
2022/04/21 10:08:07;;;;;;;4.32;2.33;;;;;;;18.92;35.21;100927.38;5066321;28;20065;-79
2022/04/21 10:10:34;;;;;;;7.60;2.53;;;;;;;18.47;38.37;100927.84;5064745;28;20021;-80
2022/04/21 10:13:01;;;;;;;7.80;3.60;;;;;;;18.54;37.55;100924.22;5081342;28;20062;-79
2022/04/21 10:15:29;;;;;;;9.93;2.40;;;;;;;18.34;38.54;100922.81;5080252;28;20083;-79
2022/04/21 10:17:54;;;;;;;6.38;2.75;;;;;;;18.69;38.23;100915.19;5067758;28;20044;-79
2022/04/21 10:20:22;;;;;;;9.13;2.65;;;;;;;18.97;38.21;100920.41;5081065;28;20116;-79
2022/04/21 10:22:49;;;;;;;12.45;2.70;;;;;;;18.25;39.27;100923.81;5050678;28;20140;-79
2022/04/21 10:25:15;;;;;;;5.22;3.00;;;;;;;18.79;36.52;100915.91;5050446;28;20033;-79
2022/04/21 10:27:45;;;;;;;4.70;2.28;;;;;;;18.30;37.73;100913.06;5059513;28;20462;-79
2022/04/21 10:30:11;;;;;;;4.45;2.60;;;;;;;18.73;33.25;100903.59;5065121;28;20025;-79
2022/04/21 10:32:48;;;;;;;3.10;2.20;;;;;;;18.62;37.25;100898.38;5064281;28;20111;-79
2022/04/21 10:35:18;;;;;;;21.00;2.60;;;;;;;19.37;34.96;100897.25;5056993;28;20098;-78
2022/04/21 10:37:44;;;;;;;10.05;2.47;;;;;;;18.96;35.17;100900.13;5048344;28;20032;-79
2022/04/21 10:40:11;;;;;;;16.02;3.10;;;;;;;18.31;36.53;100899.03;5063502;28;20094;-79
2022/04/21 10:42:52;;;;;;;4.65;2.90;;;;;;;18.46;37.97;100904.81;5063469;28;20029;-79
2022/04/21 10:45:25;;;;;;;24.63;4.00;;;;;;;18.26;38.46;100892.28;5036473;28;20084;-79
2022/04/21 10:48:12;;;;;;;4.68;2.50;;;;;;;18.64;38.17;100889.88;5061925;28;20032;-79
2022/04/21 10:50:39;;;;;;;3.55;2.35;;;;;;;18.07;37.13;100885.16;5080925;28;20134;-79
2022/04/21 10:58:36;;;;;;;11.40;3.08;;;;;;;19.12;36.28;100887.25;5055688;28;20048;-78
2022/04/21 11:01:09;;;;;;;4.93;2.70;;;;;;;19.12;36.36;100884.47;5028654;28;20033;-79
2022/04/21 11:03:36;;;;;;;;;;;;;;;19.69;37.19;100883.44;5081794;28;20037;-78
2022/04/21 11:06:07;;;;;;;10.88;3.15;;;;;;;19.42;37.19;100878.16;5063787;28;20322;-79
2022/04/21 11:08:33;;;;;;;6.80;3.00;;;;;;;18.65;36.86;100872.22;5064867;28;20033;-79
2022/04/21 11:10:59;;;;;;;11.48;3.08;;;;;;;18.71;39.99;100872.38;5062597;28;20059;-79
2022/04/21 11:14:03;;;;;;;9.05;2.80;;;;;;;18.23;37.16;100870.47;5064030;28;20033;-79
2022/04/21 11:16:45;;;;;;;21.60;3.83;;;;;;;18.30;37.67;100880.69;5007129;28;20045;-79
2022/04/21 11:19:29;;;;;;;7.30;3.53;;;;;;;18.91;36.33;100869.28;5005527;28;20400;-79
2022/04/21 11:21:55;;;;;;;9.60;2.95;;;;;;;19.61;35.30;100846.31;5019894;28;20081;-79
2022/04/21 11:24:22;;;;;;;5.40;3.10;;;;;;;19.30;36.76;100854.63;5006840;28;20034;-79
2022/04/21 11:26:58;;;;;;;14.85;4.00;;;;;;;19.39;37.16;100850.75;5021764;28;20124;-79
2022/04/21 11:29:24;;;;;;;11.48;3.35;;;;;;;19.63;38.26;100843.34;5014592;28;20080;-79
2022/04/21 11:31:57;;;;;;;7.20;3.15;;;;;;;19.37;36.37;100838.94;5024847;28;20033;-79
2022/04/21 11:34:25;;;;;;;9.77;2.78;;;;;;;19.67;36.85;100829.97;5015204;28;20033;-79
2022/04/21 11:36:56;;;;;;;15.93;3.33;;;;;;;18.68;36.09;100835.81;5022730;28;20044;-78
2022/04/21 11:39:22;;;;;;;9.43;2.95;;;;;;;18.27;38.75;100836.69;5024046;28;20042;-78
2022/04/21 11:41:52;;;;;;;9.02;3.40;;;;;;;18.94;37.99;100835.63;5003971;28;20038;-79
2022/04/21 11:44:25;;;;;;;5.60;3.20;;;;;;;19.05;37.63;100828.81;5021698;28;20030;-79
2022/04/21 11:46:51;;;;;;;41.22;3.42;;;;;;;19.24;38.83;100828.41;5024189;28;20105;-79
2022/04/21 11:49:16;;;;;;;9.15;3.60;;;;;;;19.16;36.66;100839.53;5030506;28;20087;-79
2022/04/21 11:51:42;;;;;;;15.68;3.72;;;;;;;18.40;38.37;100830.63;5023267;28;20116;-79
2022/04/21 11:54:10;;;;;;;11.40;3.50;;;;;;;19.20;40.34;100817.84;4998790;28;20501;-79
2022/04/21 11:56:38;;;;;;;79.93;5.57;;;;;;;19.67;37.99;100818.84;4989847;28;20033;-78
2022/04/21 11:59:10;;;;;;;105.50;7.15;;;;;;;19.14;39.38;100816.66;5007068;28;20049;-79
2022/04/21 12:07:08;;;;;;;10.13;3.85;;;;;;;18.16;41.79;100820.41;5024273;28;20469;-79
2022/04/21 12:09:38;;;;;;;27.55;4.20;;;;;;;18.36;41.92;100819.03;5024366;28;20048;-78
2022/04/21 12:12:07;;;;;;;8.48;3.75;;;;;;;18.11;41.79;100814.50;5022643;28;20025;-79
2022/04/21 12:14:33;;;;;;;18.55;3.80;;;;;;;17.95;40.40;100801.50;5023162;28;20029;-78
2022/04/21 12:17:00;;;;;;;15.32;4.00;;;;;;;17.86;42.90;100808.06;5022329;28;20045;-78